createdAt,value
2023-11-23T00:00:14.684Z,50.00
2023-11-23T00:01:16.862Z,50.17
2023-11-23T00:02:19.564Z,50.00
2023-11-23T00:03:21.663Z,50.83
2023-11-23T00:04:23.788Z,51.83
2023-11-23T00:05:25.828Z,54.00
2023-11-23T00:06:27.773Z,56.50
2023-11-23T00:07:29.787Z,59.17
2023-11-23T00:08:31.786Z,59.67
2023-11-23T00:09:33.878Z,56.83
2023-11-23T00:10:35.861Z,53.17
2023-11-23T00:11:37.915Z,52.00
2023-11-23T00:12:42.222Z,51.00
2023-11-23T00:13:44.222Z,48.83
2023-11-23T00:14:46.440Z,48.00
2023-11-23T00:15:48.396Z,48.50
2023-11-23T00:16:50.404Z,50.33
2023-11-23T00:17:53.533Z,52.00
2023-11-23T00:18:55.718Z,52.33
2023-11-23T00:19:57.831Z,53.00
2023-11-23T00:20:59.971Z,53.00
2023-11-23T00:22:02.410Z,52.00
2023-11-23T00:23:04.412Z,50.33
2023-11-23T00:24:09.279Z,50.00
2023-11-23T00:25:13.459Z,49.83
2023-11-23T00:26:15.602Z,45.83
2023-11-23T00:27:17.655Z,41.17
2023-11-23T00:28:22.768Z,40.17
2023-11-23T00:29:24.763Z,41.17
2023-11-23T00:30:27.041Z,42.50
2023-11-23T00:31:28.994Z,44.67
2023-11-23T00:32:31.132Z,49.67
2023-11-23T00:33:33.180Z,55.00
2023-11-23T00:34:35.271Z,58.83
2023-11-23T00:35:37.298Z,63.00
2023-11-23T00:36:39.916Z,63.33
2023-11-23T00:37:41.978Z,64.17
2023-11-23T00:38:45.780Z,65.17
2023-11-23T00:39:47.772Z,68.00
2023-11-23T00:40:52.557Z,73.33
2023-11-23T00:41:54.619Z,71.67
2023-11-23T00:42:56.586Z,70.17
2023-11-23T00:43:58.615Z,68.33
2023-11-23T00:45:00.657Z,65.50
2023-11-23T00:46:04.382Z,63.17
2023-11-23T00:47:06.493Z,61.83
2023-11-23T00:48:08.516Z,60.00
2023-11-23T00:49:10.524Z,60.00
2023-11-23T00:50:14.346Z,60.00
2023-11-23T00:51:17.415Z,60.33
2023-11-23T00:52:19.461Z,61.00
2023-11-23T00:53:22.435Z,60.33
2023-11-23T00:54:24.436Z,58.33
2023-11-23T00:55:26.430Z,58.17
2023-11-23T00:56:29.110Z,59.67
2023-11-23T00:57:33.412Z,60.00
2023-11-23T00:58:35.384Z,60.00
2023-11-23T00:59:37.807Z,60.67
2023-11-23T01:00:39.787Z,61.00
2023-11-23T01:01:41.902Z,61.00
2023-11-23T01:02:44.859Z,61.00
2023-11-23T01:03:47.120Z,62.00
2023-11-23T01:04:49.374Z,63.17
2023-11-23T01:05:51.599Z,64.00
2023-11-23T01:06:53.584Z,64.00
2023-11-23T01:07:57.409Z,64.00
2023-11-23T01:08:59.493Z,63.33
2023-11-23T01:10:01.467Z,63.00
2023-11-23T01:11:03.949Z,66.00
2023-11-23T01:12:10.650Z,72.50
2023-11-23T01:13:13.342Z,77.33
2023-11-23T01:14:15.495Z,78.33
2023-11-23T01:15:17.992Z,76.33
2023-11-23T01:16:20.092Z,75.83
2023-11-23T01:17:22.111Z,75.00
2023-11-23T01:18:24.727Z,74.83
2023-11-23T01:19:26.753Z,74.00
2023-11-23T01:20:28.774Z,74.00
2023-11-23T01:21:30.752Z,72.00
2023-11-23T01:22:32.789Z,69.17
2023-11-23T01:23:37.536Z,68.50
2023-11-23T01:24:42.574Z,66.50
2023-11-23T01:25:44.524Z,63.17
2023-11-23T01:26:46.535Z,54.50
2023-11-23T01:27:51.515Z,53.00
2023-11-23T01:28:53.460Z,49.67
2023-11-23T01:29:55.502Z,46.17
2023-11-23T01:30:57.512Z,47.17
2023-11-23T01:31:59.513Z,43.33
2023-11-23T01:33:01.658Z,40.33
2023-11-23T01:34:05.105Z,42.00
2023-11-23T01:35:07.705Z,44.00
2023-11-23T01:36:09.881Z,45.17
2023-11-23T01:37:11.992Z,46.00
2023-11-23T01:38:13.935Z,46.33
2023-11-23T01:39:15.973Z,47.33
2023-11-23T01:40:18.445Z,50.83
2023-11-23T01:41:20.448Z,56.33
2023-11-23T01:42:22.416Z,59.33
2023-11-23T01:43:24.732Z,64.83
2023-11-23T01:44:26.660Z,67.00
2023-11-23T01:45:28.668Z,65.50
2023-11-23T01:46:30.632Z,64.33
2023-11-23T01:47:32.654Z,63.17
2023-11-23T01:48:34.723Z,62.33
2023-11-23T01:49:36.755Z,62.33
2023-11-23T01:50:42.303Z,65.50
2023-11-23T01:51:44.269Z,68.00
2023-11-23T01:52:47.126Z,67.67
2023-11-23T01:53:49.193Z,67.50
2023-11-23T01:54:52.137Z,67.17
2023-11-23T01:55:54.131Z,65.83
2023-11-23T01:56:56.122Z,63.33
2023-11-23T01:57:58.277Z,60.00
2023-11-23T01:59:00.442Z,59.00
2023-11-23T02:00:02.477Z,59.00
2023-11-23T02:01:04.901Z,60.00
2023-11-23T02:02:07.051Z,60.17
2023-11-23T02:03:09.160Z,61.00
2023-11-23T02:04:11.744Z,61.00
2023-11-23T02:05:16.547Z,60.67
2023-11-23T02:06:20.268Z,59.50
2023-11-23T02:07:22.764Z,59.00
2023-11-23T02:08:25.597Z,59.67
2023-11-23T02:09:29.857Z,60.17
2023-11-23T02:10:31.833Z,61.00
2023-11-23T02:11:33.823Z,61.83
2023-11-23T02:12:36.904Z,64.83
2023-11-23T02:13:39.524Z,67.50
2023-11-23T02:14:43.037Z,68.33
2023-11-23T02:15:45.789Z,70.00
2023-11-23T02:16:47.763Z,72.33
2023-11-23T02:18:01.659Z,73.83
2023-11-23T02:19:05.262Z,73.17
2023-11-23T02:20:11.297Z,74.50
2023-11-23T02:21:13.336Z,80.83
2023-11-23T02:22:15.833Z,84.67
2023-11-23T02:23:17.842Z,87.50
2023-11-23T02:24:21.360Z,88.50
2023-11-23T02:25:23.357Z,91.50
2023-11-23T02:26:25.371Z,91.67
2023-11-23T02:27:27.390Z,97.50
2023-11-23T02:28:30.744Z,104.00
2023-11-23T02:29:32.708Z,107.17
2023-11-23T02:30:35.931Z,105.33
2023-11-23T02:31:38.496Z,105.17
2023-11-23T02:32:40.999Z,108.17
2023-11-23T02:33:43.017Z,111.50
2023-11-23T02:34:45.004Z,111.83
2023-11-23T02:35:47.029Z,111.67
2023-11-23T02:36:49.346Z,110.67
2023-11-23T02:37:51.313Z,109.00
2023-11-23T02:38:53.283Z,106.00
2023-11-23T02:39:55.261Z,98.33
2023-11-23T02:40:59.212Z,95.00
2023-11-23T02:42:01.397Z,94.83
2023-11-23T02:43:06.896Z,92.33
2023-11-23T02:45:11.722Z,79.83
2023-11-23T02:46:14.001Z,80.67
2023-11-23T02:47:15.989Z,74.33
2023-11-23T02:48:18.040Z,71.33
2023-11-23T02:49:22.968Z,75.00
2023-11-23T02:50:25.973Z,76.67
2023-11-23T02:51:27.921Z,78.67
2023-11-23T02:52:29.913Z,81.00
2023-11-23T02:53:33.994Z,82.67
2023-11-23T02:54:36.022Z,84.67
2023-11-23T02:55:38.005Z,86.33
2023-11-23T02:56:39.950Z,87.50
2023-11-23T02:57:43.569Z,88.00
2023-11-23T02:58:47.984Z,88.17
2023-11-23T02:59:50.989Z,89.17
2023-11-23T03:00:53.008Z,90.67
2023-11-23T03:01:55.179Z,93.33
2023-11-23T03:02:57.296Z,96.00
2023-11-23T03:03:59.441Z,98.33
2023-11-23T03:05:01.816Z,98.00
2023-11-23T03:06:03.809Z,98.17
2023-11-23T03:07:05.765Z,99.50
2023-11-23T03:08:07.779Z,100.50
2023-11-23T03:09:09.782Z,101.00
2023-11-23T03:10:11.861Z,101.17
2023-11-23T03:11:25.424Z,100.67
2023-11-23T03:12:27.426Z,100.00
2023-11-23T03:13:29.436Z,102.00
2023-11-23T03:14:31.410Z,109.17
2023-11-23T03:15:33.402Z,112.50
2023-11-23T03:16:35.359Z,112.83
2023-11-23T03:17:37.592Z,112.17
2023-11-23T03:18:40.567Z,111.83
2023-11-23T03:19:42.701Z,111.00
2023-11-23T03:20:44.834Z,109.50
2023-11-23T03:21:47.166Z,108.50
2023-11-23T03:22:49.188Z,107.17
2023-11-23T03:23:51.531Z,100.67
2023-11-23T03:24:53.529Z,85.33
2023-11-23T03:25:55.483Z,80.50
2023-11-23T03:26:57.813Z,78.67
2023-11-23T03:27:59.835Z,79.67
2023-11-23T03:29:01.785Z,82.67
2023-11-23T03:30:05.776Z,83.50
2023-11-23T03:31:07.733Z,82.67
2023-11-23T03:32:09.718Z,83.33
2023-11-23T03:33:11.834Z,84.00
2023-11-23T03:34:13.949Z,85.00
2023-11-23T03:35:15.920Z,86.67
2023-11-23T03:36:17.942Z,87.83
2023-11-23T03:37:19.964Z,88.83
2023-11-23T03:38:22.737Z,88.00
2023-11-23T03:39:24.849Z,88.00
2023-11-23T03:40:26.843Z,88.50
2023-11-23T03:41:28.798Z,89.00
2023-11-23T03:42:32.719Z,89.00
2023-11-23T03:43:34.665Z,89.17
2023-11-23T03:44:36.604Z,88.67
2023-11-23T03:45:38.695Z,85.83
2023-11-23T03:46:41.586Z,83.00
2023-11-23T03:47:46.834Z,78.83
2023-11-23T03:48:48.913Z,74.50
2023-11-23T03:49:52.686Z,74.83
2023-11-23T03:50:57.821Z,75.50
2023-11-23T03:51:59.832Z,75.17
2023-11-23T03:53:01.850Z,75.00
2023-11-23T03:54:04.118Z,75.00
2023-11-23T03:55:06.669Z,75.00
2023-11-23T03:56:09.488Z,74.17
2023-11-23T03:57:14.413Z,74.17
2023-11-23T03:58:16.584Z,75.67
2023-11-23T03:59:18.575Z,77.33
2023-11-23T04:00:23.316Z,78.83
2023-11-23T04:01:25.409Z,81.50
2023-11-23T04:02:27.780Z,85.00
2023-11-23T04:03:29.969Z,89.67
2023-11-23T04:04:32.485Z,90.67
2023-11-23T04:05:34.503Z,89.33
2023-11-23T04:06:36.453Z,87.67
2023-11-23T04:07:38.446Z,85.17
2023-11-23T04:08:41.083Z,85.00
2023-11-23T04:09:43.048Z,84.00
2023-11-23T04:10:49.195Z,83.50
2023-11-23T04:11:51.323Z,83.00
2023-11-23T04:12:53.298Z,83.00
2023-11-23T04:13:55.421Z,81.50
2023-11-23T04:14:57.435Z,77.83
2023-11-23T04:15:59.398Z,76.17
2023-11-23T04:17:01.422Z,76.33
2023-11-23T04:18:03.479Z,75.83
2023-11-23T04:19:08.455Z,73.67
2023-11-23T04:20:11.114Z,75.83
2023-11-23T04:21:13.415Z,75.00
2023-11-23T04:22:15.474Z,75.83
2023-11-23T04:23:17.690Z,76.00
2023-11-23T04:24:19.949Z,77.17
2023-11-23T04:25:21.964Z,78.00
2023-11-23T04:26:24.035Z,77.17
2023-11-23T04:27:26.034Z,76.17
2023-11-23T04:28:28.030Z,67.00
2023-11-23T04:29:31.909Z,62.33
2023-11-23T04:30:33.913Z,61.50
2023-11-23T04:31:36.328Z,63.33
2023-11-23T04:32:38.332Z,65.50
2023-11-23T04:33:40.541Z,69.67
2023-11-23T04:34:42.612Z,80.00
2023-11-23T04:35:47.465Z,89.83
2023-11-23T04:36:49.743Z,94.17
2023-11-23T04:37:51.718Z,94.83
2023-11-23T04:38:54.399Z,97.67
2023-11-23T04:39:56.382Z,99.83
2023-11-23T04:40:58.351Z,99.33
2023-11-23T04:42:00.575Z,102.50
2023-11-23T04:43:02.583Z,104.50
2023-11-23T04:44:04.595Z,106.17
2023-11-23T04:45:07.101Z,105.33
2023-11-23T04:46:09.167Z,106.17
2023-11-23T04:47:11.451Z,106.50
2023-11-23T04:48:13.592Z,107.00
2023-11-23T04:49:15.629Z,107.50
2023-11-23T04:50:20.129Z,110.33
2023-11-23T04:51:23.574Z,114.50
2023-11-23T04:52:25.587Z,119.00
2023-11-23T04:53:27.573Z,120.17
2023-11-23T04:54:29.584Z,121.67
2023-11-23T04:55:32.020Z,125.00
2023-11-23T04:56:34.376Z,129.17
2023-11-23T04:57:36.324Z,131.83
2023-11-23T04:58:38.341Z,129.33
2023-11-23T04:59:40.324Z,128.00
2023-11-23T05:00:42.454Z,128.33
2023-11-23T05:01:44.493Z,127.50
2023-11-23T05:02:46.521Z,126.83
2023-11-23T05:03:48.740Z,126.67
2023-11-23T05:04:51.733Z,126.83
2023-11-23T05:05:53.713Z,126.17
2023-11-23T05:06:57.355Z,126.00
2023-11-23T05:07:59.441Z,126.33
2023-11-23T05:09:01.441Z,127.17
2023-11-23T05:10:03.516Z,128.33
2023-11-23T05:11:05.562Z,130.17
2023-11-23T05:12:07.885Z,132.50
2023-11-23T05:13:12.429Z,135.83
2023-11-23T05:14:14.453Z,138.67
2023-11-23T05:15:16.731Z,139.00
2023-11-23T05:16:18.819Z,139.00
2023-11-23T05:17:20.845Z,139.50
2023-11-23T05:18:22.896Z,141.00
2023-11-23T05:19:35.883Z,140.00
2023-11-23T05:20:44.131Z,140.17
2023-11-23T05:21:46.105Z,139.83
2023-11-23T05:22:48.053Z,139.33
2023-11-23T05:23:50.048Z,138.67
2023-11-23T05:24:52.113Z,137.67
2023-11-23T05:25:54.296Z,136.83
2023-11-23T05:26:59.070Z,135.67
2023-11-23T05:28:01.127Z,134.17
2023-11-23T05:29:06.191Z,132.17
2023-11-23T05:30:08.381Z,130.00
2023-11-23T05:31:10.633Z,130.00
2023-11-23T05:32:12.632Z,130.00
2023-11-23T05:33:14.740Z,130.17
2023-11-23T05:34:16.809Z,130.00
2023-11-23T05:35:18.776Z,129.83
2023-11-23T05:36:20.834Z,129.00
2023-11-23T05:37:22.850Z,129.00
2023-11-23T05:38:24.816Z,129.00
2023-11-23T05:39:26.944Z,128.67
2023-11-23T05:40:29.096Z,128.00
2023-11-23T05:41:31.093Z,127.83
2023-11-23T05:42:33.140Z,127.00
2023-11-23T05:43:35.125Z,126.33
2023-11-23T05:44:37.876Z,126.00
2023-11-23T05:45:39.875Z,126.00
2023-11-23T05:46:41.959Z,125.17
2023-11-23T05:47:43.964Z,125.00
2023-11-23T05:48:47.149Z,125.00
2023-11-23T05:49:49.148Z,125.00
2023-11-23T05:50:51.225Z,125.00
2023-11-23T05:51:56.140Z,125.00
2023-11-23T05:53:00.800Z,125.33
2023-11-23T05:54:02.805Z,125.67
2023-11-23T05:55:08.582Z,125.00
2023-11-23T05:56:10.726Z,124.83
2023-11-23T05:57:13.059Z,124.67
2023-11-23T05:58:15.073Z,124.00
2023-11-23T05:59:17.067Z,122.83
2023-11-23T06:00:19.405Z,122.00
2023-11-23T06:01:21.441Z,121.00
2023-11-23T06:02:23.544Z,119.50
2023-11-23T06:03:26.278Z,116.67
2023-11-23T06:04:28.445Z,115.17
2023-11-23T06:05:30.578Z,111.83
2023-11-23T06:06:32.628Z,111.17
2023-11-23T06:07:34.641Z,111.33
2023-11-23T06:08:36.594Z,111.83
2023-11-23T06:09:39.097Z,113.00
2023-11-23T06:10:41.072Z,114.00
2023-11-23T06:11:44.506Z,114.00
2023-11-23T06:12:47.025Z,114.50
2023-11-23T06:13:48.983Z,115.00
2023-11-23T06:14:51.066Z,115.00
2023-11-23T06:15:53.383Z,114.67
2023-11-23T06:16:55.465Z,114.00
2023-11-23T06:18:07.544Z,114.33
2023-11-23T06:19:15.755Z,114.00
2023-11-23T06:20:17.747Z,114.00
2023-11-23T06:21:19.831Z,113.33
2023-11-23T06:22:21.844Z,113.00
2023-11-23T06:23:24.180Z,112.17
2023-11-23T06:24:26.197Z,112.17
2023-11-23T06:25:28.163Z,113.00
2023-11-23T06:26:30.120Z,113.00
2023-11-23T06:27:33.427Z,113.00
2023-11-23T06:28:35.449Z,113.33
2023-11-23T06:29:37.431Z,113.00
2023-11-23T06:30:39.479Z,113.00
2023-11-23T06:31:42.024Z,113.00
2023-11-23T06:32:44.018Z,113.00
2023-11-23T06:33:46.170Z,112.00
2023-11-23T06:34:48.223Z,112.00
2023-11-23T06:35:50.248Z,112.17
2023-11-23T06:36:52.267Z,112.00
2023-11-23T06:37:54.227Z,111.00
2023-11-23T06:38:56.772Z,110.00
2023-11-23T06:39:58.815Z,110.00
2023-11-23T06:41:00.795Z,110.00
2023-11-23T06:42:02.876Z,110.83
2023-11-23T06:43:04.898Z,110.83
2023-11-23T06:44:07.915Z,110.83
2023-11-23T06:45:10.189Z,110.17
2023-11-23T06:46:12.208Z,109.00
2023-11-23T06:47:15.473Z,109.00
2023-11-23T06:48:17.655Z,109.00
2023-11-23T06:49:19.730Z,109.00
2023-11-23T06:50:22.068Z,109.83
2023-11-23T06:51:24.084Z,110.00
2023-11-23T06:52:27.246Z,110.00
2023-11-23T06:53:29.562Z,110.00
2023-11-23T06:54:31.596Z,110.33
2023-11-23T06:55:34.016Z,111.17
2023-11-23T06:56:36.013Z,114.67
2023-11-23T06:57:43.318Z,117.67
2023-11-23T06:58:48.629Z,117.50
2023-11-23T06:59:50.779Z,116.67
2023-11-23T07:00:52.728Z,116.83
2023-11-23T07:01:57.786Z,116.00
2023-11-23T07:03:00.975Z,116.67
2023-11-23T07:04:02.993Z,116.00
2023-11-23T07:05:05.370Z,115.17
2023-11-23T07:06:07.418Z,115.00
2023-11-23T07:07:09.400Z,113.00
2023-11-23T07:08:11.388Z,111.50
2023-11-23T07:09:15.129Z,111.00
2023-11-23T07:10:20.122Z,110.33
2023-11-23T07:11:23.625Z,110.00
2023-11-23T07:12:27.789Z,110.00
2023-11-23T07:13:30.053Z,110.00
2023-11-23T07:14:32.073Z,110.83
2023-11-23T07:15:34.362Z,111.33
2023-11-23T07:16:37.439Z,112.50
2023-11-23T07:17:40.072Z,113.17
2023-11-23T07:18:42.056Z,114.50
2023-11-23T07:19:44.099Z,116.00
2023-11-23T07:20:46.046Z,116.83
2023-11-23T07:21:51.291Z,117.33
2023-11-23T07:22:53.908Z,118.00
2023-11-23T07:23:58.847Z,119.17
2023-11-23T07:25:01.450Z,119.67
2023-11-23T07:26:03.433Z,120.00
2023-11-23T07:27:05.456Z,119.50
2023-11-23T07:28:15.717Z,118.17
2023-11-23T07:29:17.656Z,116.67
2023-11-23T07:30:19.687Z,114.83
2023-11-23T07:31:21.725Z,114.00
2023-11-23T07:32:23.739Z,114.00
2023-11-23T07:33:37.186Z,114.50
2023-11-23T07:34:39.168Z,115.67
2023-11-23T07:35:41.130Z,116.50
2023-11-23T07:36:43.113Z,117.33
2023-11-23T07:37:45.068Z,117.17
2023-11-23T07:38:47.071Z,118.50
2023-11-23T07:39:49.031Z,120.00
2023-11-23T07:40:51.026Z,121.67
2023-11-23T07:41:53.286Z,122.00
2023-11-23T07:42:55.340Z,122.50
2023-11-23T07:43:59.061Z,123.00
2023-11-23T07:45:01.274Z,123.67
2023-11-23T07:46:03.606Z,124.00
2023-11-23T07:47:10.152Z,124.33
2023-11-23T07:48:15.447Z,125.00
2023-11-23T07:49:18.007Z,124.50
2023-11-23T07:50:19.980Z,124.00
2023-11-23T07:51:22.073Z,115.67
2023-11-23T07:52:24.080Z,72.00
2023-11-23T07:53:29.805Z,58.50
2023-11-23T07:54:31.894Z,75.17
2023-11-23T07:55:33.887Z,79.83
2023-11-23T07:56:35.917Z,86.50
2023-11-23T07:57:38.309Z,89.00
2023-11-23T07:58:40.298Z,88.67
2023-11-23T07:59:44.533Z,90.50
2023-11-23T08:00:46.534Z,94.50
2023-11-23T08:01:48.958Z,99.00
2023-11-23T08:02:51.028Z,101.33
2023-11-23T08:03:53.207Z,113.67
2023-11-23T08:04:55.262Z,118.00
2023-11-23T08:05:57.336Z,120.50
2023-11-23T08:07:02.132Z,119.83
2023-11-23T08:08:04.421Z,120.00
2023-11-23T08:09:06.466Z,114.33
2023-11-23T08:10:08.597Z,104.00
2023-11-23T08:11:11.155Z,112.67
2023-11-23T08:12:13.199Z,121.33
2023-11-23T08:13:18.319Z,63.17
2023-11-23T08:14:23.174Z,63.33
2023-11-23T08:15:25.787Z,81.50
2023-11-23T08:16:27.803Z,77.50
2023-11-23T08:17:29.756Z,34.00
2023-11-23T08:18:40.076Z,19.50
2023-11-23T08:19:47.910Z,20.50
2023-11-23T08:20:52.582Z,36.83
2023-11-23T08:21:54.729Z,30.33
2023-11-23T08:22:58.496Z,27.17
2023-11-23T08:24:00.565Z,26.17
2023-11-23T08:25:02.566Z,31.33
2023-11-23T08:26:05.086Z,31.50
2023-11-23T08:27:07.277Z,25.17
2023-11-23T08:28:09.260Z,24.50
2023-11-23T08:29:11.245Z,30.00
2023-11-23T08:30:14.089Z,31.67
2023-11-23T08:31:16.209Z,30.33
2023-11-23T08:32:18.173Z,31.00
2023-11-23T08:33:20.221Z,30.83
2023-11-23T08:34:22.242Z,30.33
2023-11-23T08:35:24.244Z,29.67
2023-11-23T08:36:26.550Z,29.00
2023-11-23T08:37:28.786Z,29.33
2023-11-23T08:38:30.814Z,30.50
2023-11-23T08:39:32.814Z,30.83
2023-11-23T08:40:34.760Z,31.00
2023-11-23T08:41:36.749Z,32.50
2023-11-23T08:42:38.721Z,40.17
2023-11-23T08:43:40.712Z,45.67
2023-11-23T08:44:42.676Z,50.33
2023-11-23T08:45:44.715Z,55.50
2023-11-23T08:46:46.707Z,56.83
2023-11-23T08:47:48.955Z,55.33
2023-11-23T08:48:50.960Z,53.33
2023-11-23T08:49:52.928Z,52.00
2023-11-23T08:50:54.949Z,53.50
2023-11-23T08:51:56.912Z,59.50
2023-11-23T08:53:00.330Z,56.50
2023-11-23T08:54:02.349Z,56.17
2023-11-23T08:55:09.966Z,54.83
2023-11-23T08:56:14.414Z,47.50
2023-11-23T08:57:16.667Z,42.33
2023-11-23T08:58:19.732Z,33.67
2023-11-23T08:59:21.704Z,33.67
2023-11-23T09:00:28.861Z,35.50
2023-11-23T09:01:30.941Z,37.33
2023-11-23T09:02:34.750Z,39.83
2023-11-23T09:03:36.951Z,43.00
2023-11-23T09:04:45.116Z,44.83
2023-11-23T09:05:47.995Z,45.33
2023-11-23T09:06:50.162Z,47.00
2023-11-23T09:07:52.205Z,48.00
2023-11-23T09:08:55.715Z,47.83
2023-11-23T09:09:57.712Z,46.50
2023-11-23T09:10:59.669Z,44.67
2023-11-23T09:12:02.807Z,44.00
2023-11-23T09:13:06.317Z,43.17
2023-11-23T09:14:10.397Z,42.17
2023-11-23T09:15:14.539Z,42.00
2023-11-23T09:16:19.802Z,41.67
2023-11-23T09:17:21.871Z,36.83
2023-11-23T09:18:24.142Z,31.50
2023-11-23T09:19:26.244Z,29.83
2023-11-23T09:20:28.196Z,29.00
2023-11-23T09:21:30.226Z,28.33
2023-11-23T09:22:35.051Z,29.00
2023-11-23T09:23:37.091Z,29.50
2023-11-23T09:24:39.692Z,28.83
2023-11-23T09:25:42.120Z,28.50
2023-11-23T09:26:44.093Z,28.17
2023-11-23T09:27:46.095Z,26.33
2023-11-23T09:28:48.409Z,26.33
2023-11-23T09:29:50.382Z,28.83
2023-11-23T09:30:52.942Z,29.33
2023-11-23T09:31:54.934Z,30.67
2023-11-23T09:32:57.108Z,31.67
2023-11-23T09:33:59.177Z,35.83
2023-11-23T09:35:01.233Z,40.50
2023-11-23T09:36:03.963Z,39.67
2023-11-23T09:37:09.473Z,39.00
2023-11-23T09:38:11.444Z,39.67
2023-11-23T09:39:19.457Z,40.00
2023-11-23T09:40:21.936Z,40.33
2023-11-23T09:41:23.897Z,39.83
2023-11-23T09:42:28.094Z,37.00
2023-11-23T09:43:30.838Z,32.33
2023-11-23T09:44:33.024Z,27.50
2023-11-23T09:45:35.184Z,24.00
2023-11-23T09:46:39.090Z,24.00
2023-11-23T09:47:41.549Z,25.00
2023-11-23T09:48:45.142Z,27.67
2023-11-23T09:49:47.348Z,32.50
2023-11-23T09:50:49.363Z,32.00
2023-11-23T09:51:56.928Z,31.33
2023-11-23T09:52:59.413Z,32.00
2023-11-23T09:54:01.370Z,37.50
2023-11-23T09:55:05.256Z,40.33
2023-11-23T09:56:07.896Z,38.00
2023-11-23T09:57:09.932Z,33.50
2023-11-23T09:58:11.926Z,28.67
2023-11-23T09:59:13.917Z,27.67
2023-11-23T10:00:16.264Z,26.00
2023-11-23T10:01:18.368Z,25.67
2023-11-23T10:02:21.966Z,26.67
2023-11-23T10:03:24.471Z,28.00
2023-11-23T10:04:26.890Z,27.50
2023-11-23T10:05:29.172Z,25.17
2023-11-23T10:06:31.179Z,23.17
2023-11-23T10:07:33.803Z,23.00
2023-11-23T10:08:37.127Z,24.17
2023-11-23T10:09:39.200Z,27.17
2023-11-23T10:10:41.222Z,29.00
2023-11-23T10:11:48.194Z,29.00
2023-11-23T10:12:50.830Z,28.67
2023-11-23T10:13:52.877Z,28.00
2023-11-23T10:14:55.160Z,28.00
2023-11-23T10:15:57.219Z,28.33
2023-11-23T10:16:59.202Z,33.00
2023-11-23T10:18:01.243Z,44.00
2023-11-23T10:19:04.756Z,50.33
2023-11-23T10:20:09.236Z,49.67
2023-11-23T10:21:13.026Z,47.00
2023-11-23T10:22:16.511Z,45.83
2023-11-23T10:23:21.708Z,44.83
2023-11-23T10:24:25.362Z,44.00
2023-11-23T10:25:37.059Z,44.17
2023-11-23T10:26:39.154Z,46.00
2023-11-23T10:27:41.139Z,49.17
2023-11-23T10:28:43.145Z,47.83
2023-11-23T10:29:45.094Z,47.00
2023-11-23T10:30:47.130Z,45.83
2023-11-23T10:31:49.155Z,44.83
2023-11-23T10:32:52.389Z,44.83
2023-11-23T10:33:54.390Z,36.17
2023-11-23T10:35:00.498Z,22.67
2023-11-23T10:36:09.961Z,19.83
2023-11-23T10:37:14.724Z,19.00
2023-11-23T10:38:16.875Z,20.00
2023-11-23T10:39:20.314Z,20.67
2023-11-23T10:40:22.751Z,21.67
2023-11-23T10:41:24.731Z,21.33
2023-11-23T10:42:26.914Z,21.33
2023-11-23T10:43:28.953Z,22.00
2023-11-23T10:44:31.222Z,23.00
2023-11-23T10:45:35.587Z,23.33
2023-11-23T10:46:41.256Z,24.83
2023-11-23T10:47:46.177Z,26.50
2023-11-23T10:48:48.370Z,27.00
2023-11-23T10:49:50.919Z,26.67
2023-11-23T10:50:53.602Z,25.00
2023-11-23T10:51:55.554Z,24.00
2023-11-23T10:52:59.994Z,24.50
2023-11-23T10:54:02.404Z,25.00
2023-11-23T10:55:05.874Z,25.33
2023-11-23T10:56:13.669Z,26.00
2023-11-23T10:57:18.203Z,26.33
2023-11-23T10:58:20.370Z,27.83
2023-11-23T10:59:22.424Z,30.00
2023-11-23T11:00:27.545Z,31.67
2023-11-23T11:01:31.048Z,31.83
2023-11-23T11:02:33.168Z,30.83
2023-11-23T11:03:39.718Z,30.17
2023-11-23T11:04:44.623Z,32.17
2023-11-23T11:05:49.409Z,34.00
2023-11-23T11:06:53.428Z,34.50
2023-11-23T11:08:06.920Z,35.00
2023-11-23T11:09:18.135Z,35.00
2023-11-23T11:10:23.159Z,35.00
2023-11-23T11:11:25.963Z,35.83
2023-11-23T11:12:36.890Z,35.33
2023-11-23T11:13:44.262Z,35.00
2023-11-23T11:14:55.396Z,39.17
2023-11-23T11:15:58.531Z,42.33
2023-11-23T11:17:09.362Z,41.67
2023-11-23T11:18:12.227Z,39.33
2023-11-23T11:19:17.612Z,36.33
2023-11-23T11:20:23.670Z,34.50
2023-11-23T11:21:27.325Z,34.00
2023-11-23T11:22:30.741Z,33.00
2023-11-23T11:23:46.260Z,33.00
2023-11-23T11:24:58.031Z,32.00
2023-11-23T11:26:07.052Z,31.17
2023-11-23T11:27:10.802Z,31.00
2023-11-23T11:28:15.652Z,33.33
2023-11-23T11:29:20.178Z,41.17
2023-11-23T11:30:26.011Z,43.50
2023-11-23T11:31:38.049Z,45.50
2023-11-23T11:32:41.226Z,46.67
2023-11-23T11:33:43.274Z,43.33
2023-11-23T11:34:45.274Z,36.17
2023-11-23T11:35:49.370Z,35.83
2023-11-23T11:36:52.515Z,38.83
2023-11-23T11:37:56.176Z,43.83
2023-11-23T11:39:00.876Z,45.33
2023-11-23T11:40:03.945Z,41.50
2023-11-23T11:41:08.034Z,37.00
2023-11-23T11:42:11.850Z,36.67
2023-11-23T11:43:16.166Z,39.83
2023-11-23T11:44:18.822Z,47.33
2023-11-23T11:45:21.687Z,52.50
2023-11-23T11:46:23.798Z,49.33
2023-11-23T11:47:27.276Z,42.83
2023-11-23T11:48:29.603Z,38.50
2023-11-23T11:49:31.717Z,36.33
2023-11-23T11:50:33.694Z,36.00
2023-11-23T11:51:35.728Z,36.00
2023-11-23T11:52:38.565Z,36.00
2023-11-23T11:53:41.687Z,36.00
2023-11-23T11:54:43.763Z,36.00
2023-11-23T11:55:48.676Z,35.33
2023-11-23T11:56:53.887Z,34.50
2023-11-23T11:57:56.494Z,33.83
2023-11-23T11:59:00.330Z,33.00
2023-11-23T12:00:02.507Z,33.00
2023-11-23T12:01:04.673Z,33.00
2023-11-23T12:02:07.370Z,33.00
2023-11-23T12:03:09.710Z,33.00
2023-11-23T12:04:16.501Z,33.00
2023-11-23T12:05:18.939Z,32.00
2023-11-23T12:06:21.147Z,33.17
2023-11-23T12:07:23.179Z,36.50
2023-11-23T12:08:31.969Z,37.00
2023-11-23T12:09:38.883Z,36.50
2023-11-23T12:10:46.312Z,36.00
2023-11-23T12:11:50.116Z,36.17
2023-11-23T12:12:52.713Z,37.50
2023-11-23T12:13:54.853Z,39.33
2023-11-23T12:14:57.984Z,39.50
2023-11-23T12:16:00.227Z,38.83
2023-11-23T12:17:10.162Z,37.67
2023-11-23T12:18:15.793Z,37.00
2023-11-23T12:19:18.672Z,37.00
2023-11-23T12:20:21.238Z,36.17
2023-11-23T12:21:23.271Z,33.67
2023-11-23T12:22:27.019Z,33.00
2023-11-23T12:23:30.491Z,33.00
2023-11-23T12:24:32.609Z,31.67
2023-11-23T12:25:34.970Z,30.33
2023-11-23T12:26:39.954Z,30.83
2023-11-23T12:27:42.597Z,31.50
2023-11-23T12:28:47.722Z,32.50
2023-11-23T12:29:49.965Z,34.67
2023-11-23T12:30:52.225Z,36.50
2023-11-23T12:31:54.237Z,37.50
2023-11-23T12:32:56.611Z,39.50
2023-11-23T12:33:58.596Z,43.50
2023-11-23T12:35:00.616Z,46.50
2023-11-23T12:36:02.639Z,45.67
2023-11-23T12:37:05.180Z,44.00
2023-11-23T12:38:07.962Z,41.83
2023-11-23T12:39:10.435Z,37.50
2023-11-23T12:40:13.360Z,34.33
2023-11-23T12:41:15.384Z,29.67
2023-11-23T12:42:17.902Z,27.00
2023-11-23T12:43:19.967Z,27.83
2023-11-23T12:44:22.029Z,28.00
2023-11-23T12:45:24.076Z,28.33
2023-11-23T12:46:26.180Z,30.00
2023-11-23T12:47:31.187Z,31.67
2023-11-23T12:48:35.357Z,33.17
2023-11-23T12:49:37.364Z,36.50
2023-11-23T12:50:39.357Z,39.00
2023-11-23T12:51:42.294Z,40.67
2023-11-23T12:52:44.389Z,45.50
2023-11-23T12:53:46.433Z,47.17
2023-11-23T12:54:51.478Z,44.17
2023-11-23T12:55:53.872Z,40.17
2023-11-23T12:56:56.648Z,42.33
2023-11-23T12:58:00.158Z,47.50
2023-11-23T12:59:02.835Z,51.00
2023-11-23T13:00:06.153Z,53.17
2023-11-23T13:01:08.963Z,58.00
2023-11-23T13:02:11.153Z,69.83
2023-11-23T13:03:13.258Z,73.50
2023-11-23T13:04:20.658Z,73.67
2023-11-23T13:05:23.397Z,76.17
2023-11-23T13:06:29.073Z,79.50
2023-11-23T13:07:31.193Z,73.83
2023-11-23T13:08:33.317Z,70.83
2023-11-23T13:09:35.416Z,65.33
2023-11-23T13:10:39.005Z,66.00
2023-11-23T13:11:43.794Z,66.17
2023-11-23T13:12:51.686Z,59.83
2023-11-23T13:13:53.668Z,41.83
2023-11-23T13:14:57.295Z,43.33
2023-11-23T13:15:59.337Z,42.83
2023-11-23T13:17:01.899Z,34.83
2023-11-23T13:18:05.676Z,35.67
2023-11-23T13:19:17.102Z,39.33
2023-11-23T13:20:28.811Z,42.67
2023-11-23T13:21:30.949Z,42.17
2023-11-23T13:22:33.025Z,43.00
2023-11-23T13:23:35.095Z,44.83
2023-11-23T13:24:38.151Z,43.33